Time;durP1;ratioP1;P1;durP2;ratioP2;P2;SDS_P1;SDS_P2;PMS_P1;PMS_P2;Temp;Humidity;BMP_temperature;BMP_pressure;BME280_temperature;BME280_humidity;BME280_pressure;Samples;Min_cycle;Max_cycle;Signal;HPM_P1;HPM_P2
2022/05/18 00:02:23;;;;;;;2.20;1.00;;;;;;;20.85;34.06;101733.44;4935998;29;20083;-87
2022/05/18 00:04:53;;;;;;;3.00;1.02;;;;;;;20.96;33.49;101733.47;4936297;29;20048;-84
2022/05/18 00:07:21;;;;;;;3.83;1.10;;;;;;;21.01;32.87;101736.97;4937458;29;20086;-83
2022/05/18 00:09:51;;;;;;;2.08;0.90;;;;;;;21.09;34.12;101737.84;4939720;29;20052;-81
2022/05/18 00:12:20;;;;;;;4.10;0.98;;;;;;;21.14;32.79;101735.22;4936954;29;20100;-82
2022/05/18 00:14:48;;;;;;;4.32;0.88;;;;;;;21.16;33.46;101733.47;4935921;29;20067;-81
2022/05/18 00:17:16;;;;;;;1.80;1.00;;;;;;;21.19;32.05;101732.59;4936640;29;20110;-83
2022/05/18 00:19:45;;;;;;;2.35;0.85;;;;;;;21.17;33.53;101723.84;4935994;29;20056;-85
2022/05/18 00:22:15;;;;;;;3.38;1.00;;;;;;;21.26;32.10;101722.09;4935229;29;20490;-82
2022/05/18 00:24:57;;;;;;;1.95;0.90;;;;;;;21.30;32.41;101717.69;4936688;29;20510;-85
2022/05/18 00:27:26;;;;;;;1.65;0.73;;;;;;;21.26;32.54;101713.34;4935438;29;20451;-85
2022/05/18 00:29:54;;;;;;;1.60;1.05;;;;;;;21.24;32.82;101709.81;4935803;29;20177;-86
2022/05/18 00:32:23;;;;;;;1.98;0.90;;;;;;;21.20;33.01;101700.16;4935317;29;20048;-85
2022/05/18 00:34:51;;;;;;;5.13;0.90;;;;;;;21.16;31.99;101707.16;4936506;29;20111;-85
2022/05/18 00:37:21;;;;;;;1.48;0.90;;;;;;;20.89;32.24;101705.38;4937672;29;20142;-89
2022/05/18 00:39:50;;;;;;;3.45;1.10;;;;;;;20.85;34.75;101708.88;4937762;29;20051;-84
2022/05/18 00:42:22;;;;;;;2.97;1.00;;;;;;;20.96;34.10;101699.25;4937004;29;20295;-87
2022/05/18 00:44:50;;;;;;;3.53;1.33;;;;;;;21.18;34.24;101701.91;4942377;29;20044;-87
2022/05/18 00:47:20;;;;;;;3.22;1.30;;;;;;;21.28;33.63;101704.56;4938968;28;20063;-87
2022/05/18 00:49:53;;;;;;;3.40;1.00;;;;;;;21.31;32.35;101698.41;4943053;29;20043;-86
2022/05/18 00:52:29;;;;;;;3.33;1.08;;;;;;;21.28;33.28;101695.75;4944363;29;20066;-91
2022/05/18 00:54:59;;;;;;;1.88;0.90;;;;;;;21.17;32.96;101685.25;4941800;29;20071;-91
2022/05/18 00:57:31;;;;;;;3.72;1.30;;;;;;;21.18;32.58;101678.22;4936794;29;20064;-91
2022/05/18 01:00:06;;;;;;;1.52;0.90;;;;;;;21.22;33.34;101685.25;4936177;29;20079;-86
2022/05/18 01:02:38;;;;;;;2.42;1.10;;;;;;;21.21;32.45;101679.13;4938927;29;20071;-86
2022/05/18 01:05:10;;;;;;;4.07;1.20;;;;;;;21.21;32.33;101673.84;4935704;28;20533;-87
2022/05/18 01:07:47;;;;;;;2.15;1.08;;;;;;;21.21;33.44;101680.84;4935818;29;20145;-85
2022/05/18 01:10:15;;;;;;;2.05;0.88;;;;;;;21.22;33.73;101679.97;4937145;29;20048;-87
2022/05/18 01:12:44;;;;;;;3.35;1.10;;;;;;;21.20;33.47;101671.22;4935237;29;20111;-87
2022/05/18 01:15:15;;;;;;;1.77;0.90;;;;;;;21.18;33.45;101668.56;4952228;29;20055;-84
2022/05/18 01:17:46;;;;;;;1.55;1.00;;;;;;;21.17;34.18;101660.69;4955480;29;20784;-84
2022/05/18 01:20:19;;;;;;;3.70;1.00;;;;;;;21.16;34.08;101664.19;4954368;29;20059;-86
2022/05/18 01:22:55;;;;;;;2.33;1.00;;;;;;;21.15;34.09;101658.06;4941108;29;20048;-86
2022/05/18 01:25:37;;;;;;;1.70;1.00;;;;;;;21.15;34.34;101659.81;4934894;29;20047;-86
2022/05/18 01:28:08;;;;;;;3.63;1.02;;;;;;;21.12;33.54;101652.78;4934493;29;20078;-82
2022/05/18 01:30:39;;;;;;;1.67;0.98;;;;;;;21.09;33.96;101652.78;4934377;29;20078;-87
2022/05/18 01:33:09;;;;;;;2.38;0.90;;;;;;;21.04;34.28;101644.88;4934990;29;20054;-88
2022/05/18 01:35:41;;;;;;;2.20;0.90;;;;;;;20.96;36.42;101644.00;4940601;29;20047;-89
2022/05/18 01:38:12;;;;;;;1.30;1.00;;;;;;;20.83;35.23;101645.75;4935461;29;20056;-85
2022/05/18 01:40:50;;;;;;;3.17;1.25;;;;;;;20.67;34.97;101639.59;4937656;29;20158;-88
2022/05/18 01:43:25;;;;;;;4.93;1.10;;;;;;;20.43;34.94;101642.09;4936505;29;20099;-82
2022/05/18 01:46:00;;;;;;;4.53;1.30;;;;;;;20.29;35.26;101645.59;4935900;28;20043;-88
2022/05/18 01:48:31;;;;;;;2.00;1.05;;;;;;;20.20;35.62;101637.69;4934233;29;20054;-88
2022/05/18 01:51:01;;;;;;;2.08;1.20;;;;;;;20.16;36.68;101635.00;4940536;29;20052;-87
2022/05/18 01:53:30;;;;;;;2.65;1.00;;;;;;;19.97;37.22;101627.03;4940801;29;20509;-86
2022/05/18 01:55:58;;;;;;;2.28;1.20;;;;;;;19.74;36.69;101624.31;4938693;29;20099;-85
2022/05/18 01:58:29;;;;;;;3.00;1.00;;;;;;;19.59;36.88;101619.81;4936571;29;20051;-82
2022/05/18 02:00:57;;;;;;;2.97;1.20;;;;;;;19.46;37.29;101618.84;4934216;29;20048;-84
2022/05/18 02:03:26;;;;;;;4.45;1.00;;;;;;;19.38;37.66;101615.31;4933772;29;20060;-81
2022/05/18 02:05:54;;;;;;;2.95;1.38;;;;;;;19.40;38.21;101615.31;4934212;29;20107;-80
2022/05/18 02:08:24;;;;;;;2.83;1.27;;;;;;;19.41;38.33;101612.72;4933845;29;20115;-81
2022/05/18 02:10:52;;;;;;;2.75;1.13;;;;;;;19.42;38.88;101609.22;4934011;29;20494;-83
2022/05/18 02:13:21;;;;;;;3.30;1.20;;;;;;;19.43;39.03;101600.47;4936230;29;20062;-82
2022/05/18 02:15:51;;;;;;;3.33;1.10;;;;;;;19.42;38.18;101601.34;4952958;29;20082;-81
2022/05/18 02:18:19;;;;;;;2.10;1.13;;;;;;;19.44;38.34;101596.09;4951983;28;20055;-82
2022/05/18 02:20:48;;;;;;;2.58;1.10;;;;;;;19.41;38.43;101596.97;4952698;29;20055;-80
2022/05/18 02:23:16;;;;;;;2.47;1.13;;;;;;;19.39;38.02;101603.06;4936381;29;20467;-80
2022/05/18 02:25:45;;;;;;;3.15;1.00;;;;;;;19.42;38.42;101609.22;4933133;29;20679;-80
2022/05/18 02:28:13;;;;;;;4.57;1.00;;;;;;;19.40;38.72;101594.31;4934012;29;20107;-83
2022/05/18 02:30:41;;;;;;;7.03;1.42;;;;;;;19.33;39.08;101598.63;4933438;29;20112;-83
2022/05/18 02:33:11;;;;;;;2.28;1.35;;;;;;;19.29;39.51;101603.84;4932659;29;20526;-81
2022/05/18 02:35:41;;;;;;;1.40;1.30;;;;;;;19.26;39.36;101596.84;4933129;29;20086;-82
2022/05/18 02:38:10;;;;;;;3.22;1.30;;;;;;;19.28;39.69;101599.50;4933501;29;20051;-80
2022/05/18 02:40:38;;;;;;;2.85;1.23;;;;;;;19.26;39.63;101602.09;4933507;29;20051;-81
2022/05/18 02:43:07;;;;;;;3.55;1.20;;;;;;;19.21;40.08;101611.69;4932657;29;20135;-83
2022/05/18 02:45:35;;;;;;;3.50;1.33;;;;;;;19.18;41.21;101611.66;4933156;29;20102;-78
2022/05/18 02:48:04;;;;;;;2.72;1.30;;;;;;;19.15;42.53;101599.41;4933913;28;20052;-80
2022/05/18 02:50:34;;;;;;;5.90;1.60;;;;;;;19.08;43.56;101601.97;4936656;29;20593;-80
2022/05/18 02:53:03;;;;;;;2.95;1.30;;;;;;;18.98;43.90;101596.63;4933286;29;20051;-84
2022/05/18 02:58:20;;;;;;;4.15;1.40;;;;;;;18.73;45.42;101599.88;4933037;29;20066;-83
2022/05/18 03:00:49;;;;;;;3.15;1.40;;;;;;;18.62;45.23;101595.44;4933173;29;20080;-81
2022/05/18 03:03:17;;;;;;;7.00;1.67;;;;;;;18.55;46.11;101590.09;4932593;29;20139;-82
2022/05/18 03:05:48;;;;;;;5.80;1.35;;;;;;;18.50;46.21;101591.78;4932589;29;20138;-82
2022/05/18 03:08:16;;;;;;;4.45;1.30;;;;;;;18.40;47.47;101604.81;4932958;29;20153;-84
2022/05/18 03:10:45;;;;;;;3.00;1.35;;;;;;;18.33;47.26;101607.34;4932819;29;20651;-82
2022/05/18 03:13:13;;;;;;;3.80;1.13;;;;;;;18.24;48.22;101597.63;4932731;29;20066;-82
2022/05/18 03:15:42;;;;;;;4.72;1.60;;;;;;;18.17;48.23;101598.44;4932796;29;20457;-81
2022/05/18 03:18:10;;;;;;;5.25;1.50;;;;;;;18.08;48.40;101601.81;4932780;29;20058;-81
2022/05/18 03:23:35;;;;;;;4.95;1.55;;;;;;;17.89;49.30;101598.09;4932173;29;20732;-81
2022/05/18 03:26:04;;;;;;;8.23;1.50;;;;;;;17.84;50.00;101591.03;4932489;29;20052;-82
2022/05/18 03:28:33;;;;;;;3.55;1.00;;;;;;;17.78;50.24;101592.69;4933560;29;20169;-81
2022/05/18 03:31:01;;;;;;;2.50;1.20;;;;;;;17.72;50.79;101589.97;4936652;29;20163;-84
2022/05/18 03:33:30;;;;;;;4.65;1.33;;;;;;;17.61;50.93;101586.31;4936188;29;20051;-81
2022/05/18 03:35:59;;;;;;;3.42;1.30;;;;;;;17.53;51.73;101590.59;4917750;29;20044;-82
2022/05/18 03:38:29;;;;;;;3.55;1.10;;;;;;;17.40;51.29;101591.28;4917474;29;20143;-82
2022/05/18 03:41:00;;;;;;;4.32;1.33;;;;;;;17.32;51.51;101599.00;4917451;29;20052;-85
2022/05/18 03:43:28;;;;;;;2.88;1.20;;;;;;;17.19;50.87;101603.16;4921122;29;20055;-85
2022/05/18 03:45:58;;;;;;;4.38;1.65;;;;;;;17.02;50.92;101605.50;4919418;29;20052;-84
2022/05/18 03:48:28;;;;;;;5.63;1.17;;;;;;;16.91;50.96;101597.47;4936346;29;20059;-88
2022/05/18 03:50:58;;;;;;;5.75;1.15;;;;;;;16.77;52.07;101591.13;4937506;29;20561;-84
2022/05/18 03:53:30;;;;;;;5.13;1.35;;;;;;;16.61;54.30;101586.47;4922093;29;20463;-89
2022/05/18 03:55:58;;;;;;;1.65;1.10;;;;;;;16.48;53.76;101591.44;4921116;29;20563;-86
2022/05/18 03:58:27;;;;;;;3.65;1.20;;;;;;;16.34;56.36;101592.94;4921361;29;20106;-86
2022/05/18 04:01:00;;;;;;;3.58;0.95;;;;;;;16.20;56.71;101600.50;4918016;29;20084;-86
2022/05/18 04:03:31;;;;;;;5.25;1.25;;;;;;;16.12;55.35;101602.94;4922620;29;20131;-85
2022/05/18 04:05:59;;;;;;;3.08;1.25;;;;;;;16.07;56.35;101596.75;4917307;29;20095;-86
2022/05/18 04:08:30;;;;;;;6.97;1.25;;;;;;;15.98;57.16;101604.38;4923154;29;20502;-89
2022/05/18 04:11:01;;;;;;;2.67;1.23;;;;;;;15.82;59.21;101610.13;4927704;29;20054;-88
2022/05/18 04:13:31;;;;;;;3.42;1.10;;;;;;;15.63;60.10;101601.00;4927743;29;20120;-85
2022/05/18 04:16:01;;;;;;;3.60;1.30;;;;;;;15.51;60.95;101596.41;4929264;29;20091;-89
2022/05/18 04:18:30;;;;;;;4.82;1.13;;;;;;;15.39;59.83;101590.88;4928014;29;20056;-88
2022/05/18 04:20:59;;;;;;;3.58;0.95;;;;;;;15.24;61.98;101592.28;4925740;29;20083;-87
2022/05/18 04:23:29;;;;;;;2.55;1.20;;;;;;;15.17;59.96;101593.00;4935116;29;20059;-85
2022/05/18 04:25:58;;;;;;;3.08;1.20;;;;;;;15.11;60.79;101590.22;4936438;29;20058;-85
2022/05/18 04:28:26;;;;;;;5.38;1.05;;;;;;;15.06;59.85;101602.28;4943302;29;20056;-84
2022/05/18 04:30:55;;;;;;;2.25;1.10;;;;;;;15.01;59.66;101593.47;4936033;29;20486;-85
2022/05/18 04:33:25;;;;;;;5.15;1.70;;;;;;;15.03;59.08;101607.44;4935718;29;20095;-84
2022/05/18 04:35:54;;;;;;;3.10;1.20;;;;;;;15.04;58.92;101603.97;4936237;29;20106;-85
2022/05/18 04:38:23;;;;;;;3.72;1.10;;;;;;;15.03;59.89;101607.44;4939070;29;20552;-84
2022/05/18 04:40:53;;;;;;;5.32;1.10;;;;;;;15.06;60.74;101607.50;4934918;29;20047;-84
2022/05/18 04:43:22;;;;;;;5.70;1.05;;;;;;;15.06;61.02;101610.09;4935818;29;20097;-83
2022/05/18 04:45:52;;;;;;;3.42;1.20;;;;;;;15.03;59.90;101599.59;4935280;29;20051;-85
2022/05/18 04:48:24;;;;;;;3.88;1.10;;;;;;;14.96;58.06;101606.38;4935951;28;20127;-84
2022/05/18 04:50:53;;;;;;;5.25;1.17;;;;;;;14.93;59.27;101600.19;4935708;29;20059;-84
2022/05/18 04:53:22;;;;;;;4.22;1.00;;;;;;;14.95;59.26;101598.53;4934553;29;20051;-84
2022/05/18 04:55:51;;;;;;;3.42;1.30;;;;;;;14.94;58.37;101601.97;4935238;29;20052;-85
2022/05/18 04:58:22;;;;;;;5.07;1.23;;;;;;;14.80;59.35;101604.25;4935055;29;20347;-85
2022/05/18 05:00:58;;;;;;;2.80;1.00;;;;;;;14.64;59.89;101619.47;4935356;29;20051;-88
2022/05/18 05:03:27;;;;;;;2.35;1.05;;;;;;;14.54;60.35;101622.63;4934540;29;20709;-86
2022/05/18 05:05:55;;;;;;;2.30;1.20;;;;;;;14.49;60.20;101615.53;4934948;29;20052;-84
2022/05/18 05:08:24;;;;;;;2.60;1.35;;;;;;;14.50;60.53;101626.00;4935445;29;20159;-83
2022/05/18 05:10:52;;;;;;;2.10;0.98;;;;;;;14.53;61.61;101625.19;4935192;29;20110;-84
2022/05/18 05:13:22;;;;;;;3.67;1.23;;;;;;;14.53;62.66;101631.28;4937277;29;20055;-83
2022/05/18 05:15:54;;;;;;;5.07;1.30;;;;;;;14.50;63.79;101622.47;4953647;29;20126;-84
2022/05/18 05:18:23;;;;;;;2.58;1.83;;;;;;;14.40;61.37;101627.44;4953793;29;20134;-84
2022/05/18 05:20:51;;;;;;;2.92;1.05;;;;;;;14.27;60.59;101633.16;4954036;29;20149;-83
2022/05/18 05:23:20;;;;;;;4.40;1.45;;;;;;;14.20;60.00;101626.91;4936900;29;20043;-85
2022/05/18 05:25:49;;;;;;;2.95;1.23;;;;;;;14.15;59.85;101636.28;4934707;29;20052;-82
2022/05/18 05:28:17;;;;;;;3.97;1.23;;;;;;;14.18;62.10;101627.69;4934723;29;20486;-81
2022/05/18 05:30:47;;;;;;;2.85;0.85;;;;;;;14.21;62.99;101625.19;4934632;29;20087;-81
2022/05/18 05:33:16;;;;;;;4.45;1.10;;;;;;;14.23;64.19;101633.91;4936670;29;20138;-83
2022/05/18 05:35:44;;;;;;;5.78;1.30;;;;;;;14.17;62.14;101628.53;4935387;29;20083;-81
2022/05/18 05:38:13;;;;;;;3.55;1.00;;;;;;;14.12;61.57;101640.53;4934797;29;20111;-83
2022/05/18 05:40:42;;;;;;;3.65;1.38;;;;;;;14.12;62.02;101635.31;4934100;29;20087;-81
2022/05/18 05:43:12;;;;;;;4.53;1.48;;;;;;;14.13;62.13;101629.25;4934177;29;20083;-80
2022/05/18 05:45:41;;;;;;;3.05;1.10;;;;;;;14.12;62.72;101617.97;4934401;29;20102;-81
2022/05/18 05:48:12;;;;;;;1.67;0.80;;;;;;;14.12;63.01;101611.91;4915634;29;20467;-81
2022/05/18 05:50:40;;;;;;;2.97;1.05;;;;;;;14.11;62.65;101599.72;4915043;29;20491;-81
2022/05/18 05:53:09;;;;;;;1.70;0.77;;;;;;;14.08;61.95;101595.31;4930790;29;20051;-80
2022/05/18 05:55:37;;;;;;;2.75;1.10;;;;;;;14.06;61.51;101607.38;4933918;29;20555;-80
2022/05/18 05:58:05;;;;;;;2.45;1.13;;;;;;;14.02;62.37;101601.22;4934184;29;20083;-79
2022/05/18 06:00:34;;;;;;;5.32;1.30;;;;;;;13.98;62.72;101606.28;4933999;29;20051;-80
2022/05/18 06:03:03;;;;;;;3.58;1.00;;;;;;;13.96;62.75;101603.63;4933039;29;20051;-80
2022/05/18 06:05:33;;;;;;;5.22;1.23;;;;;;;13.91;62.35;101594.81;4933171;29;20047;-80
2022/05/18 06:08:01;;;;;;;5.20;1.25;;;;;;;13.87;61.92;101592.09;4933639;29;20048;-80
2022/05/18 06:10:30;;;;;;;6.13;1.05;;;;;;;13.83;61.46;101585.91;4934255;29;20059;-79
2022/05/18 06:12:58;;;;;;;6.53;1.20;;;;;;;13.78;62.09;101593.56;4933173;29;20048;-79
2022/05/18 06:15:27;;;;;;;2.85;0.90;;;;;;;13.66;62.46;101590.63;4914947;29;20550;-80
2022/05/18 06:17:55;;;;;;;1.80;0.93;;;;;;;13.56;62.66;101583.34;4914973;29;20688;-79
2022/05/18 06:20:23;;;;;;;3.40;1.25;;;;;;;13.48;65.88;101590.94;4914512;29;20044;-79
2022/05/18 06:22:53;;;;;;;5.13;1.20;;;;;;;13.39;69.12;101588.03;4926000;29;20150;-79
2022/05/18 06:25:22;;;;;;;4.60;1.23;;;;;;;13.29;70.91;101583.41;4933842;29;20090;-79
2022/05/18 06:27:51;;;;;;;4.65;1.60;;;;;;;13.18;70.95;101580.41;4933816;29;20260;-79
2022/05/18 06:30:19;;;;;;;2.10;0.90;;;;;;;13.11;69.75;101589.72;4936996;29;20103;-79
2022/05/18 06:32:47;;;;;;;2.78;1.17;;;;;;;13.10;67.36;101600.06;4933405;29;20054;-79
2022/05/18 06:35:16;;;;;;;5.25;1.55;;;;;;;13.06;66.94;101601.69;4933656;29;20126;-80
2022/05/18 06:37:44;;;;;;;2.08;1.05;;;;;;;13.01;66.32;101608.47;4933180;29;20498;-80
2022/05/18 06:40:15;;;;;;;2.78;1.33;;;;;;;12.96;65.83;101602.22;4933369;29;20047;-80
2022/05/18 06:42:43;;;;;;;2.20;1.40;;;;;;;12.94;65.56;101603.88;4932428;29;20048;-79
2022/05/18 06:45:14;;;;;;;2.63;1.00;;;;;;;12.92;65.35;101595.19;4933233;29;20047;-79
2022/05/18 06:47:43;;;;;;;3.05;1.15;;;;;;;12.91;68.90;101596.00;4932654;28;20154;-78
2022/05/18 06:50:12;;;;;;;3.00;1.27;;;;;;;12.90;69.42;101576.06;4933456;29;20712;-79
2022/05/18 06:52:40;;;;;;;3.90;0.98;;;;;;;12.90;68.69;101586.44;4932616;29;20059;-79
2022/05/18 06:55:11;;;;;;;4.35;1.05;;;;;;;12.88;67.92;101583.78;4933078;29;20051;-79
2022/05/18 06:57:41;;;;;;;5.15;1.17;;;;;;;12.83;66.79;101589.63;4933069;29;20107;-78
2022/05/18 07:00:10;;;;;;;2.15;1.40;;;;;;;12.77;66.17;101590.34;4933189;29;20118;-80
2022/05/18 07:02:39;;;;;;;1.70;0.98;;;;;;;12.71;66.66;101583.22;4932444;29;20103;-80
2022/05/18 07:05:08;;;;;;;2.40;1.00;;;;;;;12.68;65.25;101580.50;4932838;29;20048;-81
2022/05/18 07:07:37;;;;;;;2.88;1.05;;;;;;;12.66;65.61;101581.28;4933056;29;20047;-80
2022/05/18 07:10:06;;;;;;;10.50;1.08;;;;;;;12.62;66.49;101582.91;4932935;29;20055;-80
2022/05/18 07:12:37;;;;;;;2.33;1.08;;;;;;;12.59;64.47;101593.19;4932023;29;20422;-80
2022/05/18 07:15:09;;;;;;;3.38;1.15;;;;;;;12.57;64.65;101579.25;4949332;29;20070;-80
2022/05/18 07:17:37;;;;;;;3.28;1.30;;;;;;;12.54;64.91;101576.56;4951259;29;20110;-81
2022/05/18 07:20:07;;;;;;;1.83;1.05;;;;;;;12.53;64.19;101587.78;4951989;29;20110;-80
2022/05/18 07:22:35;;;;;;;2.90;1.20;;;;;;;12.54;64.57;101585.22;4940727;29;20051;-81
2022/05/18 07:25:04;;;;;;;1.95;1.05;;;;;;;12.51;64.86;101571.28;4934799;29;20079;-81
2022/05/18 07:27:32;;;;;;;1.85;1.10;;;;;;;12.45;68.05;101579.72;4934537;29;20138;-80
2022/05/18 07:30:02;;;;;;;4.03;1.00;;;;;;;12.38;66.21;101576.88;4933208;29;20060;-80
2022/05/18 07:32:33;;;;;;;3.25;1.17;;;;;;;12.30;66.03;101572.28;4932269;29;20536;-80
2022/05/18 07:35:01;;;;;;;1.98;1.02;;;;;;;12.28;66.81;101571.34;4933017;29;20088;-80
2022/05/18 07:37:29;;;;;;;3.95;1.00;;;;;;;12.29;68.18;101573.09;4932608;29;20048;-80
2022/05/18 07:39:58;;;;;;;3.42;1.17;;;;;;;12.27;67.49;101569.56;4932427;29;20498;-80
2022/05/18 07:42:26;;;;;;;4.38;1.10;;;;;;;12.25;67.81;101557.38;4931767;29;20565;-80
2022/05/18 07:44:55;;;;;;;5.50;1.48;;;;;;;12.22;68.44;101565.94;4932988;29;20127;-81
2022/05/18 07:47:30;;;;;;;2.95;0.95;;;;;;;12.21;67.91;101573.66;4932363;28;20230;-80
2022/05/18 07:50:00;;;;;;;8.35;1.20;;;;;;;12.22;65.99;101565.94;4932882;29;20526;-80
2022/05/18 07:52:29;;;;;;;2.03;1.05;;;;;;;12.26;66.27;101567.81;4932557;29;20067;-80
2022/05/18 07:54:57;;;;;;;3.47;1.10;;;;;;;12.27;69.92;101561.78;4932409;29;20090;-79
2022/05/18 07:57:25;;;;;;;1.20;0.80;;;;;;;12.30;68.60;101563.59;4932980;29;20471;-79
2022/05/18 07:59:59;;;;;;;2.47;1.13;;;;;;;12.27;67.28;101558.31;4932788;29;20056;-78
2022/05/18 08:02:29;;;;;;;1.30;0.90;;;;;;;12.25;70.44;101547.88;4931752;29;20050;-79
2022/05/18 08:04:59;;;;;;;2.63;1.02;;;;;;;12.27;71.09;101551.41;4932664;29;20079;-79
2022/05/18 08:07:28;;;;;;;3.78;1.02;;;;;;;12.28;70.74;101560.09;4931942;29;20052;-79
2022/05/18 08:15:27;;;;;;;2.33;1.08;;;;;;;12.21;62.57;101561.59;4913987;29;20059;-80
2022/05/18 08:17:56;;;;;;;2.85;1.00;;;;;;;12.17;62.14;101566.59;4917235;29;20052;-82
2022/05/18 08:20:26;;;;;;;6.15;1.30;;;;;;;12.01;62.00;101554.78;4918893;29;20144;-83
2022/05/18 08:22:54;;;;;;;1.85;1.13;;;;;;;12.02;62.34;101556.53;4932678;29;20048;-83
2022/05/18 08:25:23;;;;;;;2.63;1.15;;;;;;;12.00;63.08;101555.59;4935746;29;20409;-82
2022/05/18 08:27:52;;;;;;;3.70;0.85;;;;;;;11.98;64.22;101542.59;4935369;29;20636;-82
2022/05/18 08:30:22;;;;;;;2.40;0.88;;;;;;;11.94;63.53;101546.78;4936034;29;20129;-81
2022/05/18 08:32:51;;;;;;;1.35;0.88;;;;;;;11.91;64.71;101545.78;4935188;29;20098;-80
2022/05/18 08:35:20;;;;;;;1.73;0.73;;;;;;;11.87;63.10;101551.66;4935345;29;20051;-81
2022/05/18 08:37:51;;;;;;;3.90;1.23;;;;;;;11.84;63.78;101543.75;4935336;29;20138;-81
2022/05/18 08:40:40;;;;;;;4.60;0.98;;;;;;;11.81;64.44;101544.53;4935889;29;20525;-81
2022/05/18 08:43:11;;;;;;;4.35;1.08;;;;;;;11.78;64.18;101535.75;4934232;29;20052;-82
2022/05/18 08:45:46;;;;;;;2.25;1.00;;;;;;;11.77;65.08;101545.22;4935846;29;20048;-80
2022/05/18 08:48:26;;;;;;;2.08;0.93;;;;;;;11.71;64.32;101529.47;4936573;28;20055;-82
2022/05/18 08:51:03;;;;;;;4.22;0.98;;;;;;;11.70;66.67;101530.28;4935305;29;20079;-80
2022/05/18 08:53:46;;;;;;;3.83;0.80;;;;;;;11.64;63.76;101527.47;4915585;29;20716;-79
2022/05/18 08:56:20;;;;;;;4.05;1.17;;;;;;;11.62;64.03;101521.34;4915230;29;20108;-80
2022/05/18 08:58:51;;;;;;;1.77;0.82;;;;;;;11.60;64.04;101513.50;4915822;29;20055;-79
2022/05/18 09:01:24;;;;;;;4.32;1.33;;;;;;;11.59;64.54;101503.06;4915807;29;20135;-79
2022/05/18 09:03:57;;;;;;;2.85;0.90;;;;;;;11.57;63.59;101500.44;4916375;29;20095;-79
2022/05/18 09:06:32;;;;;;;2.42;1.00;;;;;;;11.58;64.09;101485.75;4915949;29;20668;-81
2022/05/18 09:11:51;;;;;;;2.38;1.17;;;;;;;11.56;65.46;101479.63;4916247;29;20139;-81
2022/05/18 09:14:22;;;;;;;2.33;1.00;;;;;;;11.49;65.93;101475.94;4936516;29;20058;-80
2022/05/18 09:17:03;;;;;;;5.75;1.30;;;;;;;11.47;65.61;101483.63;4954307;29;20114;-82
2022/05/18 09:19:39;;;;;;;3.33;1.00;;;;;;;11.51;65.76;101484.66;4956783;29;20849;-79
2022/05/18 09:22:22;;;;;;;4.32;1.27;;;;;;;11.52;65.44;101481.22;4954561;29;20126;-81
2022/05/18 09:25:04;;;;;;;6.65;1.40;;;;;;;11.48;64.69;101479.38;4953916;29;20138;-80
2022/05/18 09:27:43;;;;;;;2.05;0.93;;;;;;;11.44;62.84;101462.81;4953229;28;20536;-81
2022/05/18 09:30:20;;;;;;;2.75;0.90;;;;;;;11.43;61.86;101455.88;4953500;29;20531;-80
2022/05/18 09:33:06;;;;;;;1.83;0.80;;;;;;;11.42;61.62;101453.22;4953803;29;20051;-80
2022/05/18 09:35:57;;;;;;;4.28;1.20;;;;;;;11.42;62.45;101459.28;4937641;29;20143;-80
2022/05/18 09:38:34;;;;;;;2.55;1.02;;;;;;;11.42;61.75;101451.50;4934855;29;20086;-81
2022/05/18 09:41:07;;;;;;;5.20;1.08;;;;;;;11.43;61.28;101450.69;4934779;29;20052;-80
2022/05/18 09:43:46;;;;;;;5.57;0.95;;;;;;;11.43;62.46;101458.47;4933687;29;20051;-79
2022/05/18 09:46:20;;;;;;;1.33;0.90;;;;;;;11.47;62.46;101468.09;4934145;29;20266;-79
2022/05/18 09:48:54;;;;;;;5.20;1.25;;;;;;;11.49;62.14;101461.25;4934083;28;20075;-80
2022/05/18 09:51:26;;;;;;;1.85;0.90;;;;;;;11.50;62.00;101468.22;4934323;29;20059;-80
2022/05/18 09:53:59;;;;;;;2.63;1.00;;;;;;;11.51;58.93;101464.78;4934292;29;20082;-82
2022/05/18 09:56:34;;;;;;;1.38;0.80;;;;;;;11.55;59.32;101472.72;4934094;29;20055;-80
2022/05/18 09:59:09;;;;;;;2.63;0.88;;;;;;;11.56;58.68;101483.09;4934183;29;20051;-79
2022/05/18 10:07:30;;;;;;;1.98;1.30;;;;;;;11.66;57.30;101471.34;4934371;29;20139;-79
2022/05/18 10:10:12;;;;;;;6.03;1.15;;;;;;;11.68;57.87;101456.75;4933620;29;20056;-79
2022/05/18 10:12:46;;;;;;;2.75;1.45;;;;;;;11.68;57.40;101457.66;4924888;29;20063;-82
2022/05/18 10:15:29;;;;;;;3.65;1.05;;;;;;;11.67;58.46;101465.38;4940337;29;20083;-82
2022/05/18 10:18:00;;;;;;;4.03;0.85;;;;;;;11.66;58.45;101458.41;4935109;29;20048;-79
2022/05/18 10:20:31;;;;;;;4.47;1.40;;;;;;;11.69;57.81;101468.91;4933687;29;20048;-81
2022/05/18 10:23:02;;;;;;;3.28;1.02;;;;;;;11.69;58.44;101474.09;4933661;29;20048;-81
2022/05/18 10:25:34;;;;;;;4.13;1.15;;;;;;;11.69;60.41;101474.09;4933368;29;20067;-82
2022/05/18 10:28:18;;;;;;;3.33;1.53;;;;;;;11.65;60.75;101461.84;4933618;29;20146;-79
2022/05/18 10:30:56;;;;;;;3.95;1.05;;;;;;;11.62;61.90;101466.91;4933731;29;20075;-81
2022/05/18 10:33:32;;;;;;;4.25;1.33;;;;;;;11.56;61.32;101464.09;4933030;29;20090;-81
2022/05/18 10:36:11;;;;;;;5.68;1.25;;;;;;;11.53;61.96;101468.31;4933173;29;20052;-83
2022/05/18 10:38:51;;;;;;;2.95;1.40;;;;;;;11.44;61.73;101473.16;4932953;29;20051;-84
2022/05/18 10:41:24;;;;;;;2.28;1.10;;;;;;;11.53;63.58;101481.28;4933183;29;20059;-80
2022/05/18 10:44:05;;;;;;;1.80;1.30;;;;;;;11.55;63.07;101480.47;4932859;29;20557;-80
2022/05/18 10:46:39;;;;;;;3.75;1.10;;;;;;;11.50;62.89;101488.97;4933207;29;20138;-80
2022/05/18 10:49:23;;;;;;;4.82;1.88;;;;;;;11.53;63.77;101491.66;4933822;28;20055;-83
2022/05/18 10:51:51;;;;;;;2.13;1.23;;;;;;;11.53;65.16;101507.19;4932757;29;20569;-82
2022/05/18 10:54:25;;;;;;;4.90;1.55;;;;;;;11.53;66.09;101514.09;4932352;29;20052;-82
2022/05/18 10:56:55;;;;;;;2.05;1.38;;;;;;;11.52;67.70;101512.31;4933431;29;20576;-85
2022/05/18 10:59:42;;;;;;;2.83;1.08;;;;;;;11.49;68.30;101507.91;4933335;29;20569;-83
2022/05/18 11:02:16;;;;;;;4.43;1.35;;;;;;;11.46;66.73;101506.94;4932867;29;20553;-83
2022/05/18 11:04:51;;;;;;;2.53;1.45;;;;;;;11.43;67.02;101504.19;4933007;29;20051;-81
2022/05/18 11:07:35;;;;;;;3.47;1.48;;;;;;;11.40;67.40;101494.59;4925952;29;20071;-82
2022/05/18 11:10:04;;;;;;;6.30;1.60;;;;;;;11.35;66.73;101496.16;4924607;29;20094;-81
2022/05/18 11:12:43;;;;;;;4.60;1.15;;;;;;;11.31;67.14;101508.13;4934901;29;20214;-82
2022/05/18 11:15:19;;;;;;;3.78;1.52;;;;;;;11.32;68.18;101503.81;4950943;29;20493;-82
2022/05/18 11:18:00;;;;;;;1.73;1.27;;;;;;;11.30;67.90;101497.69;4932908;29;20103;-81
2022/05/18 11:20:42;;;;;;;4.47;1.05;;;;;;;11.28;67.62;101501.91;4932908;29;20086;-79
2022/05/18 11:23:24;;;;;;;4.18;1.23;;;;;;;11.24;68.54;101498.31;4932633;29;20107;-78
2022/05/18 11:26:03;;;;;;;1.75;1.48;;;;;;;11.11;67.90;101489.19;4932979;29;20056;-79
2022/05/18 11:28:42;;;;;;;3.00;0.95;;;;;;;11.02;70.14;101478.47;4932264;29;20055;-79
2022/05/18 11:31:34;;;;;;;3.67;0.93;;;;;;;11.01;70.78;101487.06;4933056;29;20051;-80
2022/05/18 11:34:11;;;;;;;4.13;1.08;;;;;;;10.99;69.64;101493.88;4932432;29;20545;-79
2022/05/18 11:36:50;;;;;;;2.08;1.23;;;;;;;10.97;70.31;101494.66;4932508;29;20574;-79
2022/05/18 11:39:27;;;;;;;5.07;1.27;;;;;;;10.96;69.67;101493.78;4925066;29;20099;-80
2022/05/18 11:42:13;;;;;;;3.88;0.82;;;;;;;10.87;70.54;101498.59;4932067;29;20083;-79
2022/05/18 11:44:53;;;;;;;2.92;1.15;;;;;;;10.81;68.91;101498.31;4932226;29;20087;-79
2022/05/18 11:47:41;;;;;;;3.17;1.58;;;;;;;10.67;70.51;101465.03;4932377;28;20063;-79
2022/05/18 11:50:23;;;;;;;3.10;1.10;;;;;;;10.76;72.28;101486.91;4934262;29;20107;-78
2022/05/18 11:53:06;;;;;;;;;;;;;;;10.78;72.17;101498.22;4936143;29;20126;-80
2022/05/18 11:55:44;;;;;;;3.55;1.15;;;;;;;10.82;72.51;101502.69;4936323;29;20432;-79
2022/05/18 11:58:26;;;;;;;2.35;1.50;;;;;;;10.80;72.14;101499.16;4936352;29;20103;-81
2022/05/18 12:01:04;;;;;;;4.10;1.27;;;;;;;10.72;72.42;101500.53;4936337;29;20134;-80
2022/05/18 12:03:53;;;;;;;1.05;0.88;;;;;;;10.67;75.19;101508.13;4936130;29;20293;-79
2022/05/18 12:06:46;;;;;;;2.05;1.23;;;;;;;10.60;75.08;101519.03;4936396;29;20051;-79